Terminal Aerodrome Forecast
Issued by NWS

Home | Current Version | Previous Version | Text Only | Print | Product List | Glossary On
Versions: 1 2 3 4 5 6 7 8 9 10 11 12 13 14
000
FTUS46 KSEW 052100 AAA
TAFPAE
TAF AMD
KPAE 052108Z 0521/0618 36006KT P6SM VCTS SCT024CB BKN045
     FM060200 30007KT P6SM VCSH BKN030 BKN050
     FM060400 VRB03KT P6SM BKN025 BKN050=

USA.gov is the U.S. government's official web portal to all federal, state and local government web resources and services.